createdAt,value
2022-10-01T00:02:00.210Z,12.80
2022-10-01T00:04:27.274Z,11.07
2022-10-01T00:06:53.812Z,11.52
2022-10-01T00:09:20.346Z,11.93
2022-10-01T00:11:46.892Z,10.77
2022-10-01T00:14:13.429Z,11.55
2022-10-01T00:16:39.957Z,12.02
2022-10-01T00:19:06.505Z,12.23
2022-10-01T00:21:33.297Z,12.82
2022-10-01T00:24:04.755Z,12.65
2022-10-01T00:26:32.823Z,12.25
2022-10-01T00:29:08.387Z,12.55
2022-10-01T00:31:35.195Z,15.30
2022-10-01T00:34:04.849Z,15.07
2022-10-01T00:36:31.747Z,14.43
2022-10-01T00:39:01.929Z,13.50
2022-10-01T00:41:30.186Z,13.35
2022-10-01T00:44:01.162Z,14.25
2022-10-01T00:46:41.174Z,12.57
2022-10-01T00:49:15.086Z,13.07
2022-10-01T00:51:43.682Z,12.50
2022-10-01T00:54:22.545Z,13.45
2022-10-01T00:56:49.557Z,12.80
2022-10-01T00:59:16.464Z,13.77
2022-10-01T01:01:43.099Z,14.60
2022-10-01T01:04:16.621Z,14.25
2022-10-01T01:06:53.788Z,12.95
2022-10-01T01:09:20.909Z,13.95
2022-10-01T01:12:01.158Z,12.68
2022-10-01T01:14:56.068Z,12.90
2022-10-01T01:17:33.174Z,12.32
2022-10-01T01:20:32.019Z,12.10
2022-10-01T01:23:21.443Z,12.40
2022-10-01T01:25:51.567Z,11.75
2022-10-01T01:28:32.169Z,12.40
2022-10-01T01:31:01.489Z,12.25
2022-10-01T01:33:28.109Z,13.43
2022-10-01T01:36:00.033Z,14.68
2022-10-01T01:38:30.467Z,14.23
2022-10-01T01:40:59.032Z,14.55
2022-10-01T01:43:31.271Z,13.43
2022-10-01T01:45:58.523Z,13.75
2022-10-01T01:48:25.263Z,14.13
2022-10-01T01:50:57.382Z,13.10
2022-10-01T01:53:24.057Z,13.80
2022-10-01T01:55:50.617Z,13.43
2022-10-01T01:58:18.753Z,13.68
2022-10-01T02:00:46.929Z,13.75
2022-10-01T02:03:13.440Z,14.05
2022-10-01T02:05:43.302Z,13.82
2022-10-01T02:08:15.954Z,13.77
2022-10-01T02:10:55.663Z,14.30
2022-10-01T02:13:35.142Z,14.25
2022-10-01T02:16:30.782Z,14.05
2022-10-01T02:19:06.285Z,13.62
2022-10-01T02:21:39.975Z,13.60
2022-10-01T02:24:26.702Z,13.73
2022-10-01T02:26:53.246Z,13.98
2022-10-01T02:29:20.031Z,13.65
2022-10-01T02:31:47.486Z,13.83
2022-10-01T02:34:19.999Z,14.68
2022-10-01T02:36:46.901Z,13.80
2022-10-01T02:39:14.201Z,13.75
2022-10-01T02:41:41.016Z,13.73
2022-10-01T02:44:11.737Z,12.60
2022-10-01T02:46:59.371Z,13.70
2022-10-01T02:49:30.393Z,14.38
2022-10-01T02:52:15.895Z,13.40
2022-10-01T02:55:00.546Z,13.85
2022-10-01T02:57:27.658Z,13.27
2022-10-01T03:00:01.338Z,12.90
2022-10-01T03:02:28.603Z,13.32
2022-10-01T03:04:56.810Z,13.23
2022-10-01T03:07:24.142Z,13.30
2022-10-01T03:09:51.079Z,13.15
2022-10-01T03:12:18.214Z,13.15
2022-10-01T03:14:45.481Z,12.88
2022-10-01T03:17:12.486Z,12.63
2022-10-01T03:19:39.015Z,13.02
2022-10-01T03:22:05.557Z,13.27
2022-10-01T03:24:32.091Z,13.27
2022-10-01T03:26:58.839Z,13.35
2022-10-01T03:29:25.658Z,12.75
2022-10-01T03:31:52.364Z,14.37
2022-10-01T03:34:19.007Z,13.02
2022-10-01T03:36:45.554Z,12.98
2022-10-01T03:39:12.165Z,13.57
2022-10-01T03:41:38.743Z,14.27
2022-10-01T03:44:05.302Z,13.73
2022-10-01T03:46:31.871Z,14.80
2022-10-01T03:49:00.955Z,14.50
2022-10-01T03:51:28.650Z,14.60
2022-10-01T03:56:22.240Z,12.07
2022-10-01T03:58:48.802Z,13.90
2022-10-01T04:01:15.452Z,12.50
2022-10-01T04:03:43.072Z,13.43
2022-10-01T04:06:09.974Z,13.32
2022-10-01T04:08:37.124Z,13.35
2022-10-01T04:11:03.790Z,13.32
2022-10-01T04:13:30.300Z,12.63
2022-10-01T04:15:56.910Z,12.65
2022-10-01T04:18:23.492Z,12.57
2022-10-01T04:20:50.068Z,12.45
2022-10-01T04:23:16.603Z,13.10
2022-10-01T04:25:43.211Z,14.15
2022-10-01T04:28:11.202Z,14.63
2022-10-01T04:30:39.180Z,13.80
2022-10-01T04:33:05.756Z,13.10
2022-10-01T04:35:32.301Z,13.65
2022-10-01T04:38:01.942Z,13.13
2022-10-01T04:40:28.589Z,13.52
2022-10-01T04:42:55.117Z,12.52
2022-10-01T04:45:21.678Z,13.15
2022-10-01T04:47:49.406Z,13.02
2022-10-01T04:52:43.231Z,12.40
2022-10-01T04:55:09.804Z,13.85
2022-10-01T04:57:36.837Z,13.20
2022-10-01T05:00:05.683Z,12.90
2022-10-01T05:02:34.468Z,11.95
2022-10-01T05:05:04.873Z,12.48
2022-10-01T05:07:32.057Z,13.02
2022-10-01T05:09:58.674Z,13.13
2022-10-01T05:12:25.903Z,13.52
2022-10-01T05:14:53.162Z,13.10
2022-10-01T05:17:19.965Z,14.00
2022-10-01T05:19:47.047Z,13.23
2022-10-01T05:22:13.934Z,13.85
2022-10-01T05:24:40.458Z,14.77
2022-10-01T05:27:13.304Z,13.40
2022-10-01T05:29:41.412Z,14.27
2022-10-01T05:32:08.701Z,13.20
2022-10-01T05:34:35.394Z,13.65
2022-10-01T05:37:02.879Z,13.10
2022-10-01T05:39:30.151Z,12.60
2022-10-01T05:42:05.365Z,13.00
2022-10-01T05:44:38.103Z,13.18
2022-10-01T05:47:07.579Z,12.07
2022-10-01T05:49:34.162Z,12.55
2022-10-01T05:52:01.037Z,12.95
2022-10-01T05:54:30.795Z,12.50
2022-10-01T05:56:57.369Z,13.20
2022-10-01T05:59:28.410Z,12.65
2022-10-01T06:01:57.727Z,12.35
2022-10-01T06:04:25.696Z,12.97
2022-10-01T06:06:53.586Z,12.77
2022-10-01T06:09:20.125Z,12.52
2022-10-01T06:11:49.270Z,12.77
2022-10-01T06:14:16.217Z,12.27
2022-10-01T06:16:42.933Z,12.88
2022-10-01T06:19:09.606Z,12.47
2022-10-01T06:21:36.611Z,13.48
2022-10-01T06:24:03.470Z,12.52
2022-10-01T06:26:30.038Z,13.35
2022-10-01T06:28:56.645Z,12.52
2022-10-01T06:31:23.997Z,13.62
2022-10-01T06:33:50.579Z,13.45
2022-10-01T06:36:17.209Z,13.73
2022-10-01T06:38:43.849Z,14.38
2022-10-01T06:41:10.717Z,13.75
2022-10-01T06:43:37.300Z,12.48
2022-10-01T06:46:04.515Z,12.10
2022-10-01T06:48:31.474Z,12.05
2022-10-01T06:50:58.381Z,12.48
2022-10-01T06:53:24.927Z,13.15
2022-10-01T06:55:51.470Z,11.60
2022-10-01T06:58:19.702Z,12.15
2022-10-01T07:00:46.867Z,12.07
2022-10-01T07:03:15.844Z,12.55
2022-10-01T07:05:42.879Z,13.40
2022-10-01T07:08:09.455Z,12.60
2022-10-01T07:10:36.420Z,12.65
2022-10-01T07:13:13.084Z,14.18
2022-10-01T07:15:39.675Z,13.50
2022-10-01T07:18:06.758Z,12.80
2022-10-01T07:20:35.997Z,13.23
2022-10-01T07:23:02.540Z,13.35
2022-10-01T07:25:29.308Z,13.32
2022-10-01T07:28:00.775Z,13.87
2022-10-01T07:30:27.426Z,12.68
2022-10-01T07:32:54.426Z,12.85
2022-10-01T07:35:21.254Z,13.32
2022-10-01T07:37:48.455Z,13.57
2022-10-01T07:40:16.454Z,12.65
2022-10-01T07:42:43.623Z,13.70
2022-10-01T07:45:10.606Z,14.23
2022-10-01T07:47:37.199Z,13.13
2022-10-01T07:50:04.103Z,13.43
2022-10-01T07:52:30.702Z,13.65
2022-10-01T07:54:57.222Z,13.90
2022-10-01T07:57:23.810Z,13.27
2022-10-01T07:59:55.676Z,11.38
2022-10-01T08:02:22.763Z,13.57
2022-10-01T08:05:07.971Z,12.60
2022-10-01T08:07:35.851Z,13.62
2022-10-01T08:10:04.969Z,13.32
2022-10-01T08:12:31.686Z,14.38
2022-10-01T08:14:58.331Z,13.60
2022-10-01T08:17:28.644Z,13.70
2022-10-01T08:19:55.947Z,13.48
2022-10-01T08:22:22.519Z,13.98
2022-10-01T08:24:49.076Z,14.27
2022-10-01T08:27:15.660Z,13.27
2022-10-01T08:29:45.786Z,13.02
2022-10-01T08:32:12.422Z,13.30
2022-10-01T08:34:39.068Z,12.93
2022-10-01T08:37:05.634Z,13.32
2022-10-01T08:39:32.481Z,13.20
2022-10-01T08:42:15.410Z,13.38
2022-10-01T08:44:43.777Z,13.27
2022-10-01T08:47:17.027Z,11.57
2022-10-01T08:49:46.430Z,12.93
2022-10-01T08:52:20.048Z,13.62
2022-10-01T08:55:01.617Z,12.30
2022-10-01T08:57:30.258Z,12.30
2022-10-01T08:59:59.504Z,13.20
2022-10-01T09:02:33.794Z,13.10
2022-10-01T09:05:07.902Z,13.50
2022-10-01T09:08:15.405Z,12.35
2022-10-01T09:11:00.770Z,14.10
2022-10-01T09:13:54.470Z,14.27
2022-10-01T09:16:32.959Z,15.35
2022-10-01T09:19:08.156Z,14.45
2022-10-01T09:21:50.897Z,16.00
2022-10-01T09:24:41.186Z,15.38
2022-10-01T09:27:13.650Z,15.13
2022-10-01T09:29:43.307Z,17.00
2022-10-01T09:32:11.736Z,15.52
2022-10-01T09:34:40.074Z,15.98
2022-10-01T09:37:14.892Z,15.05
2022-10-01T09:40:01.031Z,16.70
2022-10-01T09:42:28.051Z,14.43
2022-10-01T09:44:54.692Z,14.90
2022-10-01T09:47:22.022Z,15.88
2022-10-01T09:49:48.938Z,14.57
2022-10-01T09:52:15.357Z,16.55
2022-10-01T09:55:02.543Z,15.05
2022-10-01T09:57:33.982Z,15.65
2022-10-01T10:00:07.674Z,14.93
2022-10-01T10:02:48.780Z,14.13
2022-10-01T10:05:18.037Z,13.98
2022-10-01T10:07:52.026Z,12.65
2022-10-01T10:10:41.296Z,13.68
2022-10-01T10:13:14.735Z,13.18
2022-10-01T10:15:51.763Z,14.18
2022-10-01T10:18:28.880Z,15.18
2022-10-01T10:20:55.491Z,14.63
2022-10-01T10:23:25.460Z,14.87
2022-10-01T10:26:02.939Z,15.73
2022-10-01T10:28:43.344Z,14.82
2022-10-01T10:31:14.257Z,15.48
2022-10-01T10:34:02.823Z,13.93
2022-10-01T10:36:30.136Z,14.18
2022-10-01T10:38:56.847Z,14.27
2022-10-01T10:41:29.230Z,13.07
2022-10-01T10:44:04.407Z,13.82
2022-10-01T10:46:33.060Z,13.48
2022-10-01T10:49:05.884Z,14.10
2022-10-01T10:51:45.176Z,14.10
2022-10-01T10:54:29.296Z,13.60
2022-10-01T10:57:03.283Z,14.52
2022-10-01T10:59:31.834Z,12.18
2022-10-01T11:02:02.627Z,13.32
2022-10-01T11:04:45.342Z,12.75
2022-10-01T11:07:13.622Z,12.93
2022-10-01T11:10:22.854Z,13.60
2022-10-01T11:13:24.762Z,13.25
2022-10-01T11:16:00.729Z,14.10
2022-10-01T11:18:45.184Z,13.98
2022-10-01T11:21:26.902Z,13.45
2022-10-01T11:24:09.285Z,14.25
2022-10-01T11:26:50.566Z,14.02
2022-10-01T11:30:03.739Z,14.50
2022-10-01T11:32:38.989Z,11.90
2022-10-01T11:35:22.269Z,12.65
2022-10-01T11:38:10.906Z,12.32
2022-10-01T11:40:49.114Z,9.38
2022-10-01T11:43:27.643Z,8.43
2022-10-01T11:45:56.910Z,7.68
2022-10-01T11:48:33.660Z,7.53
2022-10-01T11:51:02.966Z,8.02
2022-10-01T11:53:34.287Z,7.72
2022-10-01T11:56:29.289Z,7.55
2022-10-01T11:58:58.937Z,6.70
2022-10-01T12:01:49.182Z,7.55
2022-10-01T12:04:32.558Z,8.18
2022-10-01T12:07:23.347Z,7.53
2022-10-01T12:10:28.672Z,5.90
2022-10-01T12:13:03.212Z,6.70
2022-10-01T12:15:49.380Z,5.28
2022-10-01T12:18:21.128Z,6.12
2022-10-01T12:20:52.679Z,5.43
2022-10-01T12:23:24.869Z,5.90
2022-10-01T12:26:12.969Z,5.12
2022-10-01T12:29:00.336Z,5.12
2022-10-01T12:31:27.242Z,4.95
2022-10-01T12:33:53.719Z,5.28
2022-10-01T12:36:30.968Z,5.37
2022-10-01T12:39:22.435Z,5.47
2022-10-01T12:42:01.938Z,5.57
2022-10-01T12:45:05.189Z,4.47
2022-10-01T12:48:28.609Z,4.40
2022-10-01T12:51:13.068Z,4.43
2022-10-01T12:53:48.164Z,5.70
2022-10-01T12:56:15.899Z,4.87
2022-10-01T12:59:04.008Z,3.60
2022-10-01T13:01:41.005Z,3.92
2022-10-01T13:04:17.590Z,4.50
2022-10-01T13:07:08.035Z,4.03
2022-10-01T13:09:39.503Z,3.53
2022-10-01T13:12:25.873Z,3.87
2022-10-01T13:14:53.487Z,4.03
2022-10-01T13:17:54.543Z,3.80
2022-10-01T13:20:40.992Z,5.32
2022-10-01T13:23:21.835Z,3.53
2022-10-01T13:25:58.378Z,6.03
2022-10-01T13:28:35.300Z,4.25
2022-10-01T13:31:10.247Z,4.40
2022-10-01T13:33:37.316Z,4.00
2022-10-01T13:36:05.414Z,4.12
2022-10-01T13:38:37.486Z,3.33
2022-10-01T13:41:29.537Z,3.83
2022-10-01T13:43:59.096Z,3.83
2022-10-01T13:46:27.832Z,3.55
2022-10-01T13:48:54.370Z,4.20
2022-10-01T13:51:20.944Z,3.33
2022-10-01T13:53:50.617Z,4.83
2022-10-01T13:56:36.206Z,4.47
2022-10-01T13:59:04.399Z,4.68
2022-10-01T14:01:41.689Z,6.15
2022-10-01T14:04:39.091Z,7.90
2022-10-01T14:07:15.903Z,6.50
2022-10-01T14:09:46.330Z,7.85
2022-10-01T14:12:35.839Z,7.25
2022-10-01T14:15:26.340Z,6.15
2022-10-01T14:17:53.274Z,5.55
2022-10-01T14:20:28.798Z,6.10
2022-10-01T14:22:58.247Z,5.47
2022-10-01T14:25:36.391Z,6.93
2022-10-01T14:30:54.391Z,7.20
2022-10-01T14:33:34.991Z,8.40
2022-10-01T14:36:34.998Z,7.80
2022-10-01T14:39:05.445Z,8.48
2022-10-01T14:41:33.881Z,7.97
2022-10-01T14:44:01.580Z,8.50
2022-10-01T14:46:28.215Z,8.32
2022-10-01T14:48:58.495Z,9.03
2022-10-01T14:51:29.283Z,8.77
2022-10-01T14:53:59.492Z,8.35
2022-10-01T14:56:26.072Z,9.35
2022-10-01T14:58:55.160Z,7.90
2022-10-01T15:01:22.964Z,7.12
2022-10-01T15:03:50.215Z,7.37
2022-10-01T15:06:18.731Z,7.60
2022-10-01T15:08:47.874Z,9.07
2022-10-01T15:11:15.846Z,9.77
2022-10-01T15:13:44.194Z,9.73
2022-10-01T15:16:15.329Z,11.40
2022-10-01T15:18:50.167Z,10.88
2022-10-01T15:21:26.366Z,11.82
2022-10-01T15:23:52.934Z,10.18
2022-10-01T15:26:22.507Z,11.68
2022-10-01T15:28:49.094Z,10.95
2022-10-01T15:31:16.748Z,11.07
2022-10-01T15:33:43.403Z,10.50
2022-10-01T15:36:17.526Z,10.55
2022-10-01T15:38:45.250Z,10.00
2022-10-01T15:41:32.636Z,9.30
2022-10-01T15:44:02.509Z,8.90
2022-10-01T15:46:31.378Z,8.32
2022-10-01T15:49:20.442Z,7.82
2022-10-01T15:54:40.179Z,7.25
2022-10-01T15:57:07.309Z,7.03
2022-10-01T15:59:34.231Z,7.53
2022-10-01T16:02:00.846Z,6.60
2022-10-01T16:04:27.454Z,6.85
2022-10-01T16:06:54.012Z,6.55
2022-10-01T16:09:24.421Z,6.18
2022-10-01T16:11:55.309Z,5.72
2022-10-01T16:14:27.950Z,5.20
2022-10-01T16:17:16.328Z,4.65
2022-10-01T16:19:43.643Z,4.30
2022-10-01T16:22:19.365Z,4.45
2022-10-01T16:24:56.373Z,4.20
2022-10-01T16:27:30.272Z,3.67
2022-10-01T16:30:11.927Z,3.70
2022-10-01T16:32:38.560Z,3.58
2022-10-01T16:35:28.525Z,4.40
2022-10-01T16:37:57.417Z,2.90
2022-10-01T16:40:26.034Z,3.12
2022-10-01T16:42:52.711Z,3.10
2022-10-01T16:45:27.687Z,2.50
2022-10-01T16:47:56.709Z,2.97
2022-10-01T16:50:23.415Z,3.00
2022-10-01T16:52:53.840Z,3.40
2022-10-01T16:55:25.793Z,2.70
2022-10-01T16:57:54.551Z,2.58
2022-10-01T17:00:22.514Z,2.45
2022-10-01T17:02:49.573Z,2.53
2022-10-01T17:05:30.373Z,2.37
2022-10-01T17:08:05.209Z,2.47
2022-10-01T17:10:32.620Z,3.00
2022-10-01T17:12:59.685Z,3.85
2022-10-01T17:15:27.125Z,2.97
2022-10-01T17:17:54.434Z,2.92
2022-10-01T17:20:22.120Z,3.20
2022-10-01T17:25:19.975Z,2.95
2022-10-01T17:27:46.618Z,2.55
2022-10-01T17:30:13.274Z,2.03
2022-10-01T17:32:40.278Z,2.60
2022-10-01T17:35:07.432Z,3.10
2022-10-01T17:37:34.552Z,3.17
2022-10-01T17:40:01.251Z,2.70
2022-10-01T17:42:27.869Z,2.40
2022-10-01T17:44:54.868Z,2.30
2022-10-01T17:47:21.442Z,2.50
2022-10-01T17:49:47.993Z,2.75
2022-10-01T17:52:14.577Z,2.17
2022-10-01T17:54:41.110Z,2.50
2022-10-01T17:57:10.861Z,2.90
2022-10-01T17:59:38.024Z,2.58
2022-10-01T18:02:23.500Z,3.08
2022-10-01T18:04:52.194Z,2.80
2022-10-01T18:07:19.408Z,3.05
2022-10-01T18:09:46.168Z,3.00
2022-10-01T18:12:13.214Z,2.83
2022-10-01T18:14:39.797Z,3.55
2022-10-01T18:17:06.341Z,3.40
2022-10-01T18:22:19.528Z,3.40
2022-10-01T18:24:46.112Z,3.90
2022-10-01T18:27:13.138Z,4.07
2022-10-01T18:29:39.670Z,4.95
2022-10-01T18:32:09.179Z,4.62
2022-10-01T18:34:42.067Z,5.22
2022-10-01T18:37:39.993Z,5.07
2022-10-01T18:40:07.103Z,5.22
2022-10-01T18:42:40.941Z,4.05
2022-10-01T18:45:14.608Z,4.60
2022-10-01T18:47:58.671Z,4.35
2022-10-01T18:50:31.164Z,4.70
2022-10-01T18:53:07.048Z,4.97
2022-10-01T18:55:40.383Z,5.53
2022-10-01T18:58:22.017Z,5.43
2022-10-01T19:01:08.306Z,5.30
2022-10-01T19:04:00.603Z,6.05
2022-10-01T19:06:42.279Z,6.32
2022-10-01T19:09:18.766Z,6.43
2022-10-01T19:11:49.225Z,6.90
2022-10-01T19:14:15.629Z,6.82
2022-10-01T19:16:52.439Z,7.68
2022-10-01T19:19:36.447Z,7.53
2022-10-01T19:22:10.195Z,7.72
2022-10-01T19:24:54.313Z,6.03
2022-10-01T19:27:56.112Z,6.57
2022-10-01T19:30:22.719Z,6.10
2022-10-01T19:32:54.620Z,5.12
2022-10-01T19:35:28.209Z,5.57
2022-10-01T19:38:02.072Z,6.40
2022-10-01T19:40:32.793Z,7.68
2022-10-01T19:43:03.873Z,4.90
2022-10-01T19:45:37.729Z,5.20
2022-10-01T19:48:04.143Z,5.30
2022-10-01T19:50:33.779Z,4.60
2022-10-01T19:53:01.378Z,4.82
2022-10-01T19:55:32.148Z,5.22
2022-10-01T19:58:02.211Z,5.55
2022-10-01T20:00:28.911Z,5.25
2022-10-01T20:03:04.111Z,4.37
2022-10-01T20:05:55.862Z,4.32
2022-10-01T20:08:42.039Z,4.80
2022-10-01T20:11:29.875Z,3.87
2022-10-01T20:15:11.342Z,4.12
2022-10-01T20:17:53.493Z,4.12
2022-10-01T20:20:44.644Z,3.62
2022-10-01T20:23:30.164Z,4.15
2022-10-01T20:26:29.780Z,3.80
2022-10-01T20:31:41.357Z,4.10
2022-10-01T20:34:44.947Z,3.22
2022-10-01T20:37:40.785Z,3.67
2022-10-01T20:40:26.996Z,3.35
2022-10-01T20:42:56.657Z,4.70
2022-10-01T20:45:26.697Z,2.95
2022-10-01T20:48:11.648Z,3.30
2022-10-01T20:50:44.596Z,3.20
2022-10-01T20:53:32.177Z,3.53
2022-10-01T20:56:09.875Z,2.80
2022-10-01T20:58:52.397Z,3.05
2022-10-01T21:01:23.966Z,3.95
2022-10-01T21:04:13.183Z,4.40
2022-10-01T21:06:45.785Z,3.10
2022-10-01T21:09:18.785Z,3.15
2022-10-01T21:11:48.538Z,3.87
2022-10-01T21:14:24.853Z,2.97
2022-10-01T21:17:15.675Z,3.60
2022-10-01T21:20:04.633Z,2.92
2022-10-01T21:25:28.017Z,2.75
2022-10-01T21:28:12.911Z,2.50
2022-10-01T21:31:03.403Z,2.87
2022-10-01T21:33:34.089Z,3.67
2022-10-01T21:36:11.324Z,3.62
2022-10-01T21:38:54.645Z,3.70
2022-10-01T21:41:53.580Z,2.90
2022-10-01T21:44:47.436Z,3.22
2022-10-01T21:47:43.716Z,2.92
2022-10-01T21:50:20.652Z,3.12
2022-10-01T21:53:28.865Z,3.85
2022-10-01T21:56:23.644Z,3.28
2022-10-01T21:59:01.084Z,4.90
2022-10-01T22:01:37.984Z,3.00
2022-10-01T22:04:13.318Z,3.28
2022-10-01T22:06:52.866Z,3.00
2022-10-01T22:09:27.159Z,2.65
2022-10-01T22:11:55.292Z,3.03
2022-10-01T22:14:22.084Z,3.10
2022-10-01T22:16:59.541Z,2.10
2022-10-01T22:19:28.630Z,2.47
2022-10-01T22:22:18.416Z,2.33
2022-10-01T22:24:51.713Z,3.65
2022-10-01T22:27:37.392Z,2.28
2022-10-01T22:30:13.067Z,3.47
2022-10-01T22:33:07.729Z,2.10
2022-10-01T22:35:38.939Z,1.95
2022-10-01T22:38:09.970Z,2.00
2022-10-01T22:40:40.426Z,2.28
2022-10-01T22:43:09.909Z,2.40
2022-10-01T22:46:03.358Z,1.75
2022-10-01T22:48:29.775Z,2.20
2022-10-01T22:51:12.586Z,1.95
2022-10-01T22:54:02.017Z,2.17
2022-10-01T22:56:54.077Z,1.77
2022-10-01T22:59:35.787Z,3.00
2022-10-01T23:02:44.227Z,1.92
2022-10-01T23:06:04.960Z,1.83
2022-10-01T23:08:43.381Z,2.40
2022-10-01T23:14:12.740Z,2.22
2022-10-01T23:16:54.353Z,2.00
2022-10-01T23:19:39.848Z,2.10
2022-10-01T23:22:28.677Z,2.40
2022-10-01T23:25:13.587Z,1.50
2022-10-01T23:28:10.491Z,1.60
2022-10-01T23:30:47.094Z,2.17
2022-10-01T23:33:19.890Z,3.05
2022-10-01T23:36:02.066Z,1.70
2022-10-01T23:38:37.612Z,2.62
2022-10-01T23:41:11.600Z,1.35
2022-10-01T23:43:43.407Z,1.50
2022-10-01T23:46:31.670Z,2.55
2022-10-01T23:49:11.518Z,1.90
2022-10-01T23:51:58.972Z,2.10
2022-10-01T23:54:50.279Z,2.50
2022-10-01T23:57:31.282Z,1.65
